Time;durP1;ratioP1;P1;durP2;ratioP2;P2;SDS_P1;SDS_P2;PMS_P1;PMS_P2;Temp;Humidity;BMP_temperature;BMP_pressure;BME280_temperature;BME280_humidity;BME280_pressure;Samples;Min_cycle;Max_cycle;Signal;HPM_P1;HPM_P2
2020/12/24 00:00:44;;;;;;;18.23;13.75;;;10.40;1.00;;;;;;5025886;28;20986;-72
2020/12/24 00:03:10;;;;;;;19.45;15.30;;;10.30;1.00;;;;;;5007892;28;20253;-72
2020/12/24 00:05:36;;;;;;;16.90;13.13;;;10.40;1.00;;;;;;5031803;28;20254;-72
2020/12/24 00:08:03;;;;;;;17.85;14.10;;;10.40;1.00;;;;;;4999805;28;20741;-73
2020/12/24 00:10:29;;;;;;;16.45;13.93;;;10.40;1.00;;;;;;5019702;28;20271;-72
2020/12/24 00:12:56;;;;;;;16.63;13.90;;;10.40;1.00;;;;;;4995161;28;20259;-72
2020/12/24 00:15:23;;;;;;;15.40;13.05;;;10.50;1.00;;;;;;5019430;28;20250;-72
2020/12/24 00:17:49;;;;;;;14.30;12.80;;;10.50;1.00;;;;;;4988701;28;20286;-71
2020/12/24 00:20:16;;;;;;;16.85;12.40;;;10.50;1.00;;;;;;5013346;28;23633;-71
2020/12/24 00:22:42;;;;;;;16.30;13.68;;;10.50;1.00;;;;;;4995650;28;20712;-72
2020/12/24 00:25:08;;;;;;;14.27;11.93;;;10.50;1.00;;;;;;5018932;28;20325;-72
2020/12/24 00:27:35;;;;;;;15.15;12.23;;;10.50;1.00;;;;;;4998448;28;20218;-72
2020/12/24 00:30:03;;;;;;;13.05;11.57;;;10.60;1.00;;;;;;5019889;28;20230;-72
2020/12/24 00:32:29;;;;;;;12.73;10.70;;;10.60;1.00;;;;;;4994876;28;20361;-72
2020/12/24 00:34:55;;;;;;;12.82;9.90;;;10.60;1.00;;;;;;5017856;28;20228;-72
2020/12/24 00:37:22;;;;;;;11.27;9.35;;;10.60;1.00;;;;;;5006295;28;20714;-72
2020/12/24 00:39:48;;;;;;;10.25;9.25;;;10.60;1.00;;;;;;5015991;28;20741;-71
2020/12/24 00:42:14;;;;;;;10.07;9.05;;;10.70;1.00;;;;;;5016458;28;20240;-72
2020/12/24 00:44:41;;;;;;;9.95;8.93;;;10.70;1.00;;;;;;5000251;28;20216;-72
2020/12/24 00:47:08;;;;;;;10.90;8.45;;;10.60;1.00;;;;;;5020427;28;20400;-71
2020/12/24 00:49:34;;;;;;;11.15;9.48;;;10.70;1.00;;;;;;4999266;28;20387;-72
2020/12/24 00:52:00;;;;;;;7.90;7.10;;;10.70;1.00;;;;;;5021752;28;20226;-73
2020/12/24 00:54:26;;;;;;;8.90;7.40;;;10.70;1.00;;;;;;4995205;28;20220;-72
2020/12/24 00:56:53;;;;;;;7.53;6.82;;;10.70;1.00;;;;;;5019791;28;21211;-72
2020/12/24 00:59:19;;;;;;;8.05;7.30;;;10.70;1.00;;;;;;4991780;28;20313;-72
2020/12/24 01:01:45;;;;;;;7.82;7.05;;;10.60;1.00;;;;;;5020896;28;20222;-72
2020/12/24 01:04:12;;;;;;;6.85;6.10;;;10.60;1.00;;;;;;4998594;28;21016;-72
2020/12/24 01:06:38;;;;;;;6.75;6.15;;;10.60;1.00;;;;;;5019177;28;20258;-71
2020/12/24 01:09:05;;;;;;;6.00;5.40;;;10.60;1.00;;;;;;4996626;28;20234;-71
2020/12/24 01:11:32;;;;;;;6.68;5.90;;;10.50;1.00;;;;;;5019257;28;20316;-73
2020/12/24 01:13:59;;;;;;;6.18;5.50;;;10.50;1.00;;;;;;4995708;28;20333;-71
2020/12/24 01:16:25;;;;;;;5.82;5.28;;;10.50;1.00;;;;;;5014902;28;20233;-71
2020/12/24 01:18:51;;;;;;;5.93;4.95;;;10.40;1.00;;;;;;5016365;28;20372;-73
2020/12/24 01:21:18;;;;;;;6.20;5.55;;;10.40;1.00;;;;;;4992184;28;21153;-73
2020/12/24 01:23:44;;;;;;;5.70;5.20;;;10.40;1.00;;;;;;5020020;28;20276;-72
2020/12/24 01:26:10;;;;;;;5.32;4.47;;;10.40;1.00;;;;;;5001730;28;20305;-73
2020/12/24 01:28:37;;;;;;;5.45;5.00;;;10.40;1.00;;;;;;5014944;28;20306;-73
2020/12/24 01:31:04;;;;;;;4.88;4.28;;;10.40;1.00;;;;;;4998085;28;20238;-73
2020/12/24 01:33:31;;;;;;;4.55;4.05;;;10.50;1.00;;;;;;5017574;28;20302;-73
2020/12/24 01:35:58;;;;;;;4.85;4.45;;;10.50;1.00;;;;;;4999860;28;20301;-72
2020/12/24 01:38:25;;;;;;;5.43;4.90;;;10.50;1.00;;;;;;5021731;28;20320;-72
2020/12/24 01:40:57;;;;;;;3.97;3.58;;;10.50;1.00;;;;;;5001725;28;20233;-73
2020/12/24 01:43:23;;;;;;;3.88;3.53;;;10.50;1.00;;;;;;5010550;28;20267;-72
2020/12/24 01:45:52;;;;;;;3.72;3.33;;;10.50;1.00;;;;;;4992292;28;20313;-72
2020/12/24 01:48:18;;;;;;;3.95;3.20;;;10.40;1.00;;;;;;5026426;28;20214;-72
2020/12/24 01:50:45;;;;;;;3.53;3.22;;;10.40;1.00;;;;;;5009492;28;20240;-72
2020/12/24 01:53:18;;;;;;;4.88;3.25;;;10.30;1.00;;;;;;5027734;28;20277;-72
2020/12/24 01:55:46;;;;;;;3.72;3.30;;;10.30;1.00;;;;;;5011557;28;21084;-72
2020/12/24 01:58:12;;;;;;;3.58;3.28;;;10.20;1.00;;;;;;5025850;28;20375;-72
2020/12/24 02:00:39;;;;;;;4.32;3.92;;;10.20;1.00;;;;;;5015882;28;20235;-73
2020/12/24 02:03:05;;;;;;;5.35;3.97;;;10.20;1.00;;;;;;5028754;28;20226;-73
2020/12/24 02:05:31;;;;;;;4.45;4.05;;;10.20;1.00;;;;;;5030060;28;20329;-72
2020/12/24 02:07:58;;;;;;;3.35;3.05;;;10.20;1.00;;;;;;4999661;28;20249;-72
2020/12/24 02:10:28;;;;;;;3.65;3.35;;;10.10;1.00;;;;;;5022824;28;20676;-73
2020/12/24 02:12:55;;;;;;;4.40;3.53;;;10.10;1.00;;;;;;5000559;28;20218;-71
2020/12/24 02:15:21;;;;;;;4.40;4.00;;;10.10;1.00;;;;;;5020619;28;20215;-71
2020/12/24 02:17:47;;;;;;;3.90;3.60;;;10.10;1.00;;;;;;4996056;28;20646;-71
2020/12/24 02:20:14;;;;;;;4.40;4.00;;;10.00;1.00;;;;;;5018245;28;20231;-71
2020/12/24 02:22:41;;;;;;;5.00;4.60;;;10.00;1.00;;;;;;5004132;28;20223;-71
2020/12/24 02:25:07;;;;;;;3.70;3.40;;;10.00;1.00;;;;;;5026261;28;20246;-72
2020/12/24 02:27:33;;;;;;;4.57;4.18;;;10.00;1.00;;;;;;5008291;28;20215;-73
2020/12/24 02:30:01;;;;;;;4.40;4.00;;;9.90;1.00;;;;;;5021355;28;20240;-72
2020/12/24 02:32:28;;;;;;;4.30;3.90;;;9.90;1.00;;;;;;5004934;28;20223;-72
2020/12/24 02:34:55;;;;;;;5.00;4.50;;;9.90;1.00;;;;;;5031864;28;20230;-72
2020/12/24 02:37:22;;;;;;;5.85;5.28;;;9.90;1.00;;;;;;5004012;28;20219;-72
2020/12/24 02:39:50;;;;;;;5.60;5.05;;;9.90;1.00;;;;;;5021343;28;20229;-71
2020/12/24 02:42:17;;;;;;;5.88;4.75;;;9.80;1.00;;;;;;5002747;28;20313;-72
2020/12/24 02:44:43;;;;;;;5.03;4.63;;;9.80;1.00;;;;;;5017585;28;20215;-72
2020/12/24 02:47:09;;;;;;;5.43;4.47;;;9.90;1.00;;;;;;5021130;28;20231;-72
2020/12/24 02:49:36;;;;;;;6.80;5.67;;;9.90;1.00;;;;;;4995785;28;20652;-73
2020/12/24 02:52:02;;;;;;;4.90;4.47;;;10.00;1.00;;;;;;5022700;28;20630;-72
2020/12/24 02:54:29;;;;;;;5.82;5.20;;;10.00;1.00;;;;;;5000051;28;20230;-72
2020/12/24 02:56:56;;;;;;;6.07;5.47;;;10.00;1.00;;;;;;5020876;28;20302;-72
2020/12/24 02:59:22;;;;;;;5.93;5.35;;;10.00;1.00;;;;;;4998318;28;21045;-72
2020/12/24 03:01:48;;;;;;;4.88;4.45;;;10.00;1.00;;;;;;5016093;28;20233;-72
2020/12/24 03:04:14;;;;;;;5.90;5.40;;;10.00;1.00;;;;;;5000569;28;20228;-72
2020/12/24 03:06:40;;;;;;;5.88;5.32;;;10.00;1.00;;;;;;5019939;28;20266;-72
2020/12/24 03:09:06;;;;;;;6.63;5.88;;;10.10;1.00;;;;;;5002792;28;20255;-72
2020/12/24 03:11:33;;;;;;;6.88;4.88;;;10.10;1.00;;;;;;5021933;28;20246;-72
2020/12/24 03:14:00;;;;;;;6.30;5.70;;;10.10;1.00;;;;;;5006262;28;20221;-72
2020/12/24 03:16:26;;;;;;;4.70;4.25;;;10.10;1.00;;;;;;5028358;28;20215;-72
2020/12/24 03:18:52;;;;;;;4.70;4.30;;;10.10;1.00;;;;;;5023555;28;20591;-72
2020/12/24 03:21:18;;;;;;;5.18;4.75;;;10.10;1.00;;;;;;5025634;28;20317;-72
2020/12/24 03:23:45;;;;;;;4.93;4.53;;;10.10;1.00;;;;;;5019255;28;20244;-72
2020/12/24 03:26:11;;;;;;;5.35;4.80;;;10.10;1.00;;;;;;5015481;28;20231;-72
2020/12/24 03:28:37;;;;;;;4.60;4.03;;;10.10;1.00;;;;;;5021452;28;20265;-72
2020/12/24 03:31:04;;;;;;;5.45;4.28;;;10.10;1.00;;;;;;5002392;28;20730;-73
2020/12/24 03:33:33;;;;;;;4.35;3.75;;;10.10;1.00;;;;;;5021268;28;20305;-72
2020/12/24 03:35:59;;;;;;;4.05;3.72;;;10.10;1.00;;;;;;4995853;28;20231;-73
2020/12/24 03:38:26;;;;;;;5.38;3.85;;;10.10;1.00;;;;;;5024302;28;20223;-73
2020/12/24 03:40:52;;;;;;;3.85;3.53;;;10.20;1.00;;;;;;5005430;28;20227;-72
2020/12/24 03:43:18;;;;;;;3.85;3.55;;;10.20;1.00;;;;;;5029453;28;20303;-72
2020/12/24 03:45:44;;;;;;;3.97;3.67;;;10.20;1.00;;;;;;5003984;28;20222;-72
2020/12/24 03:48:11;;;;;;;3.50;3.20;;;10.20;1.00;;;;;;5022905;28;20309;-72
2020/12/24 03:50:37;;;;;;;4.32;3.95;;;10.20;1.00;;;;;;4993864;28;20244;-73
2020/12/24 03:53:03;;;;;;;5.55;3.60;;;10.30;1.00;;;;;;5017878;28;22441;-73
2020/12/24 03:55:30;;;;;;;5.28;3.22;;;10.30;1.00;;;;;;5000125;28;20330;-72
2020/12/24 03:57:56;;;;;;;4.53;2.80;;;10.30;1.00;;;;;;5020547;28;20223;-73
2020/12/24 04:00:22;;;;;;;4.13;3.30;;;10.20;1.00;;;;;;4996918;28;20227;-73
2020/12/24 04:02:48;;;;;;;3.22;2.35;;;10.20;1.00;;;;;;5016946;28;20294;-73
2020/12/24 04:05:15;;;;;;;3.80;2.55;;;10.10;1.00;;;;;;5022702;28;20727;-73
2020/12/24 04:07:42;;;;;;;6.30;2.80;;;10.10;1.00;;;;;;5003911;28;20717;-73
2020/12/24 04:10:08;;;;;;;2.53;2.30;;;10.00;1.00;;;;;;5016847;28;20285;-73
2020/12/24 04:12:34;;;;;;;3.53;2.70;;;9.90;1.00;;;;;;5000601;28;20385;-72
2020/12/24 04:15:00;;;;;;;3.55;3.10;;;9.90;1.00;;;;;;5020849;28;20222;-73
2020/12/24 04:17:27;;;;;;;2.78;2.20;;;9.90;1.00;;;;;;5004065;28;20218;-73
2020/12/24 04:19:53;;;;;;;5.20;3.00;;;10.00;1.00;;;;;;5020149;28;20235;-72
2020/12/24 04:22:20;;;;;;;5.10;2.25;;;10.00;1.00;;;;;;5003558;28;20313;-73
2020/12/24 04:24:46;;;;;;;3.50;2.55;;;9.90;1.00;;;;;;5024038;28;20254;-72
2020/12/24 04:27:12;;;;;;;3.10;2.35;;;9.90;1.00;;;;;;4998803;28;20226;-72
2020/12/24 04:29:39;;;;;;;2.40;2.20;;;9.90;1.00;;;;;;5022227;28;20227;-72
2020/12/24 04:32:05;;;;;;;2.95;2.22;;;9.80;1.00;;;;;;5003347;28;20226;-73
2020/12/24 04:34:31;;;;;;;2.40;2.20;;;9.80;1.00;;;;;;5023218;28;20230;-72
2020/12/24 04:36:57;;;;;;;3.40;2.25;;;9.80;1.00;;;;;;5000791;28;20290;-72
2020/12/24 04:39:24;;;;;;;2.90;2.60;;;9.70;1.00;;;;;;5020746;28;20776;-72
2020/12/24 04:41:52;;;;;;;2.30;2.10;;;9.70;1.00;;;;;;4999088;28;20702;-72
2020/12/24 04:44:19;;;;;;;3.00;2.60;;;9.60;1.00;;;;;;5016666;28;20965;-72
2020/12/24 04:46:49;;;;;;;4.65;2.50;;;9.60;1.00;;;;;;5013224;28;20222;-72
2020/12/24 04:49:16;;;;;;;3.03;2.67;;;9.60;1.00;;;;;;4995735;28;20238;-73
2020/12/24 04:51:46;;;;;;;4.97;2.42;;;9.50;1.00;;;;;;5018568;28;20231;-72
2020/12/24 04:54:13;;;;;;;2.63;2.42;;;9.50;1.00;;;;;;4994754;28;20225;-72
2020/12/24 04:56:40;;;;;;;3.22;2.40;;;9.50;1.00;;;;;;5021475;28;20221;-72
2020/12/24 04:59:07;;;;;;;2.53;2.33;;;9.60;1.00;;;;;;4997119;28;20306;-72
2020/12/24 05:01:34;;;;;;;4.78;2.17;;;9.60;1.00;;;;;;5017107;28;20694;-71
2020/12/24 05:04:00;;;;;;;3.83;2.20;;;9.60;1.00;;;;;;4991788;28;20884;-71
2020/12/24 05:06:27;;;;;;;3.63;2.10;;;9.50;1.00;;;;;;5018658;28;20225;-71
2020/12/24 05:08:55;;;;;;;2.95;1.40;;;9.60;1.00;;;;;;4999215;28;20222;-71
2020/12/24 05:11:25;;;;;;;2.88;1.75;;;9.50;1.00;;;;;;5019351;28;20308;-73
2020/12/24 05:13:52;;;;;;;2.08;1.40;;;9.50;1.00;;;;;;4994430;28;20226;-73
2020/12/24 05:16:19;;;;;;;3.00;1.90;;;9.50;1.00;;;;;;5015563;28;20234;-73
2020/12/24 05:18:45;;;;;;;6.88;1.90;;;9.50;1.00;;;;;;4996633;28;20250;-73
2020/12/24 05:21:11;;;;;;;1.30;1.17;;;9.50;1.00;;;;;;5015715;28;20297;-73
2020/12/24 05:23:38;;;;;;;1.70;1.50;;;9.50;1.00;;;;;;4999031;28;20326;-73
2020/12/24 05:26:19;;;;;;;3.15;1.35;;;9.50;1.00;;;;;;5023462;28;20308;-73
2020/12/24 05:28:45;;;;;;;2.80;1.88;;;9.60;1.00;;;;;;5005260;28;20294;-73
2020/12/24 05:31:31;;;;;;;2.47;1.52;;;9.60;1.00;;;;;;5023879;28;20230;-73
2020/12/24 05:33:57;;;;;;;2.50;2.28;;;9.60;1.00;;;;;;4998236;28;20226;-72
2020/12/24 05:36:24;;;;;;;4.05;2.00;;;9.60;1.00;;;;;;5021270;28;20224;-72
2020/12/24 05:38:52;;;;;;;2.40;2.17;;;9.60;1.00;;;;;;5024274;28;20318;-71
2020/12/24 05:41:33;;;;;;;4.90;2.50;;;9.60;1.00;;;;;;4997316;28;20299;-71
2020/12/24 05:44:01;;;;;;;4.00;1.90;;;9.60;1.00;;;;;;5019071;28;20235;-71
2020/12/24 05:46:29;;;;;;;3.90;2.25;;;9.50;1.00;;;;;;5000398;28;20229;-72
2020/12/24 05:48:56;;;;;;;2.45;1.70;;;9.50;1.00;;;;;;5020513;28;20314;-72
2020/12/24 05:51:22;;;;;;;2.25;1.83;;;9.50;1.00;;;;;;5006188;28;20300;-71
2020/12/24 05:53:49;;;;;;;3.00;2.22;;;9.40;1.00;;;;;;5031965;28;20235;-72
2020/12/24 05:56:22;;;;;;;3.75;2.42;;;9.40;1.00;;;;;;5012592;28;20389;-71
2020/12/24 05:58:49;;;;;;;5.00;2.42;;;9.30;1.00;;;;;;5021324;28;20257;-74
2020/12/24 06:01:16;;;;;;;3.58;2.30;;;9.40;1.00;;;;;;5002959;28;20313;-72
2020/12/24 06:04:01;;;;;;;2.65;1.90;;;9.30;1.00;;;;;;5021063;28;20227;-72
2020/12/24 06:06:43;;;;;;;2.35;1.70;;;9.30;1.00;;;;;;4997895;28;20234;-71
2020/12/24 06:09:13;;;;;;;7.10;1.60;;;9.30;1.00;;;;;;5013333;28;20649;-73
2020/12/24 06:11:46;;;;;;;3.40;1.52;;;9.30;1.00;;;;;;5007353;28;20241;-71
2020/12/24 06:14:31;;;;;;;2.53;1.85;;;9.30;1.00;;;;;;5020768;28;20261;-73
2020/12/24 06:17:06;;;;;;;3.08;2.08;;;9.20;1.00;;;;;;5003632;28;20245;-72
2020/12/24 06:19:38;;;;;;;1.92;1.60;;;9.20;1.00;;;;;;5019858;28;20225;-72
2020/12/24 06:22:05;;;;;;;4.00;2.00;;;9.20;1.00;;;;;;4992929;28;20287;-72
2020/12/24 06:24:32;;;;;;;3.00;2.00;;;9.20;1.00;;;;;;5020434;28;20269;-72
2020/12/24 06:27:05;;;;;;;4.65;2.03;;;9.20;1.00;;;;;;4994450;28;20700;-72
2020/12/24 06:29:36;;;;;;;3.22;2.10;;;9.10;1.00;;;;;;5022129;28;20937;-72
2020/12/24 06:32:06;;;;;;;1.90;1.70;;;9.10;1.00;;;;;;4997904;28;20337;-71
2020/12/24 06:34:32;;;;;;;2.55;2.13;;;9.10;1.00;;;;;;5021107;28;20743;-72
2020/12/24 06:37:12;;;;;;;5.85;1.92;;;9.10;1.00;;;;;;5005975;28;20241;-72
2020/12/24 06:39:41;;;;;;;2.58;1.83;;;9.10;1.00;;;;;;5022468;28;20238;-73
2020/12/24 06:42:41;;;;;;;4.00;2.05;;;9.10;1.00;;;;;;5011269;28;21230;-71
2020/12/24 06:45:09;;;;;;;3.58;1.50;;;9.00;1.00;;;;;;5021311;28;20222;-73
2020/12/24 06:47:36;;;;;;;4.72;1.73;;;8.90;1.00;;;;;;5005467;28;20259;-73
2020/12/24 06:50:34;;;;;;;2.90;1.65;;;8.90;1.00;;;;;;5023642;28;20314;-71
2020/12/24 06:53:23;;;;;;;3.53;1.80;;;8.80;1.00;;;;;;5006802;28;20250;-73
2020/12/24 06:56:22;;;;;;;6.40;1.77;;;8.80;1.00;;;;;;5025482;28;21310;-73
2020/12/24 06:58:50;;;;;;;2.50;1.90;;;8.70;1.00;;;;;;5004162;28;20233;-73
2020/12/24 07:01:19;;;;;;;3.17;1.60;;;8.60;1.00;;;;;;5021867;28;20334;-73
2020/12/24 07:03:46;;;;;;;2.97;1.60;;;8.60;1.00;;;;;;5001248;28;20762;-73
2020/12/24 07:06:13;;;;;;;2.78;1.50;;;8.50;1.00;;;;;;5020472;28;20226;-74
2020/12/24 07:08:47;;;;;;;4.15;1.80;;;8.50;1.00;;;;;;5004671;28;20236;-73
2020/12/24 07:11:41;;;;;;;3.90;2.58;;;8.50;1.00;;;;;;5018602;28;20268;-72
2020/12/24 07:14:23;;;;;;;4.27;1.80;;;8.40;1.00;;;;;;5002573;28;20273;-73
2020/12/24 07:16:50;;;;;;;4.60;1.73;;;8.30;1.00;;;;;;5019937;28;20442;-72
2020/12/24 07:19:18;;;;;;;4.05;1.77;;;8.40;1.00;;;;;;5006844;28;22978;-72
2020/12/24 07:21:47;;;;;;;5.53;1.70;;;8.30;1.00;;;;;;5017990;28;20313;-74
2020/12/24 07:24:16;;;;;;;7.68;2.13;;;8.30;1.00;;;;;;5028252;28;20223;-72
2020/12/24 07:26:43;;;;;;;5.35;1.83;;;8.20;1.00;;;;;;5014322;28;20222;-72
2020/12/24 07:29:13;;;;;;;6.75;2.30;;;8.30;1.00;;;;;;5024643;28;20771;-71
2020/12/24 07:31:39;;;;;;;3.53;1.77;;;8.20;1.00;;;;;;5004362;28;20234;-72
2020/12/24 07:34:05;;;;;;;3.83;1.88;;;8.20;1.00;;;;;;5018587;28;20223;-72
2020/12/24 07:36:32;;;;;;;3.72;1.77;;;8.10;1.00;;;;;;5002338;28;20222;-72
2020/12/24 07:38:58;;;;;;;7.10;2.97;;;8.10;1.00;;;;;;5018981;28;20711;-73
2020/12/24 07:41:25;;;;;;;4.60;2.17;;;8.10;1.00;;;;;;5007982;28;20230;-73
2020/12/24 07:43:51;;;;;;;3.03;1.63;;;8.10;1.00;;;;;;5019650;28;20270;-73
2020/12/24 07:46:22;;;;;;;5.25;2.25;;;8.10;1.00;;;;;;5018229;28;20234;-76
2020/12/24 07:48:49;;;;;;;3.78;1.70;;;8.10;1.00;;;;;;5036559;28;20233;-72
2020/12/24 07:51:15;;;;;;;5.55;1.70;;;8.10;1.00;;;;;;5010446;28;20238;-71
2020/12/24 07:53:42;;;;;;;5.25;1.95;;;8.10;1.00;;;;;;5019454;28;20223;-72
2020/12/24 07:56:09;;;;;;;7.55;2.00;;;8.10;1.00;;;;;;5017534;28;20267;-71
2020/12/24 07:58:36;;;;;;;5.13;1.77;;;8.20;1.00;;;;;;4999553;28;20224;-72
2020/12/24 08:01:05;;;;;;;4.85;1.63;;;8.10;1.00;;;;;;5016625;28;20309;-71
2020/12/24 08:03:31;;;;;;;4.90;2.00;;;8.20;1.00;;;;;;5005878;28;20318;-72
2020/12/24 08:06:04;;;;;;;4.45;1.90;;;8.20;1.00;;;;;;5022971;28;20248;-72
2020/12/24 08:08:35;;;;;;;4.45;1.60;;;8.30;1.00;;;;;;4992446;28;20223;-72
2020/12/24 08:11:02;;;;;;;5.03;1.85;;;8.40;1.00;;;;;;5021475;28;20762;-72
2020/12/24 08:13:28;;;;;;;6.18;1.88;;;8.40;1.00;;;;;;4993235;28;20246;-73
2020/12/24 08:15:57;;;;;;;5.72;2.00;;;8.40;1.00;;;;;;5029050;28;20258;-72
2020/12/24 08:18:32;;;;;;;7.20;1.90;;;8.30;1.00;;;;;;4993573;28;20898;-72
2020/12/24 08:21:03;;;;;;;3.08;1.30;;;8.40;1.00;;;;;;5014439;28;20242;-73
2020/12/24 08:23:39;;;;;;;2.75;1.65;;;8.50;1.00;;;;;;5008631;28;20945;-74
2020/12/24 08:26:06;;;;;;;3.10;1.45;;;8.60;1.00;;;;;;5020297;28;20378;-73
2020/12/24 08:28:53;;;;;;;5.53;2.58;;;8.70;1.00;;;;;;5023134;28;20314;-73
2020/12/24 08:31:22;;;;;;;6.03;2.10;;;8.80;1.00;;;;;;5130782;23;20234;-74
2020/12/24 08:33:57;;;;;;;6.32;2.15;;;8.90;1.00;;;;;;5001704;28;20231;-74
2020/12/24 08:36:52;;;;;;;3.38;1.75;;;9.10;1.00;;;;;;4984609;28;20718;-74
2020/12/24 08:42:32;;;;;;;3.90;1.90;;;8.80;1.00;;;;;;5185936;23;40082;-71
2020/12/24 08:44:58;;;;;;;4.95;1.67;;;8.60;1.00;;;;;;4980365;28;20245;-72
2020/12/24 08:47:25;;;;;;;4.72;1.65;;;8.50;1.00;;;;;;5001688;28;20232;-71
2020/12/24 08:49:51;;;;;;;6.72;1.85;;;8.30;1.00;;;;;;4988306;28;20219;-73
2020/12/24 08:52:20;;;;;;;3.80;1.67;;;8.20;1.00;;;;;;4983281;28;21005;-72
2020/12/24 08:54:57;;;;;;;5.15;1.52;;;8.20;1.00;;;;;;4977277;28;20231;-72
2020/12/24 08:57:24;;;;;;;6.30;2.40;;;8.10;1.00;;;;;;4961312;28;20220;-71
2020/12/24 08:59:53;;;;;;;4.07;1.50;;;8.00;1.00;;;;;;4978419;28;20221;-73
2020/12/24 09:02:28;;;;;;;4.70;2.08;;;8.00;1.00;;;;;;4961695;28;20978;-73
2020/12/24 09:04:55;;;;;;;6.78;2.60;;;8.00;1.00;;;;;;4976009;28;20318;-73
2020/12/24 09:07:27;;;;;;;5.63;1.92;;;7.90;1.00;;;;;;4961321;28;20346;-73
2020/12/24 09:10:11;;;;;;;4.32;1.45;;;7.90;1.00;;;;;;4981301;28;20223;-71
2020/12/24 09:12:39;;;;;;;3.15;2.00;;;7.90;1.00;;;;;;4955737;28;20720;-71
2020/12/24 09:15:08;;;;;;;6.22;2.45;;;7.80;1.00;;;;;;4983388;28;20232;-71
2020/12/24 09:17:36;;;;;;;4.90;1.70;;;7.90;1.00;;;;;;4962659;28;20239;-74
2020/12/24 09:20:08;;;;;;;6.07;1.30;;;7.90;1.00;;;;;;4985385;28;20283;-72
2020/12/24 09:22:35;;;;;;;4.78;1.40;;;7.90;1.00;;;;;;4967905;28;20224;-72
2020/12/24 09:25:02;;;;;;;4.28;1.90;;;8.00;1.00;;;;;;4985681;28;21222;-71
2020/12/24 09:27:28;;;;;;;5.25;2.47;;;7.90;1.00;;;;;;4960753;28;20331;-72
2020/12/24 09:29:54;;;;;;;5.65;1.58;;;7.90;1.00;;;;;;4976887;28;20327;-73
2020/12/24 09:32:20;;;;;;;3.10;1.40;;;8.10;1.00;;;;;;4965451;28;20753;-73
2020/12/24 09:34:47;;;;;;;4.07;1.40;;;8.00;1.00;;;;;;4976070;28;20223;-72
2020/12/24 09:37:14;;;;;;;4.82;2.75;;;8.00;1.00;;;;;;4966107;28;20283;-73
2020/12/24 09:39:40;;;;;;;4.57;1.88;;;8.10;1.00;;;;;;4985976;28;20321;-71
2020/12/24 09:42:06;;;;;;;5.72;1.90;;;8.10;1.00;;;;;;4966364;28;20219;-72
2020/12/24 09:44:32;;;;;;;5.00;1.80;;;8.20;1.00;;;;;;4987453;28;20260;-71
2020/12/24 09:46:58;;;;;;;5.40;3.08;;;8.20;1.00;;;;;;4983516;28;20779;-71
2020/12/24 09:49:25;;;;;;;7.40;1.92;;;8.20;1.00;;;;;;4965690;28;20407;-72
2020/12/24 09:51:52;;;;;;;5.32;1.70;;;8.30;1.00;;;;;;4983327;28;20250;-72
2020/12/24 09:54:18;;;;;;;4.10;1.38;;;8.30;1.00;;;;;;4971138;28;20301;-72
2020/12/24 09:56:46;;;;;;;8.38;2.20;;;8.30;1.00;;;;;;4987816;28;20236;-73
2020/12/24 09:59:12;;;;;;;5.10;2.00;;;8.30;1.00;;;;;;4990001;28;20256;-71
2020/12/24 10:01:38;;;;;;;5.00;1.35;;;8.40;1.00;;;;;;4997913;28;20220;-71
2020/12/24 10:04:05;;;;;;;3.80;1.85;;;8.40;1.00;;;;;;4987899;28;20279;-71
2020/12/24 10:06:31;;;;;;;3.72;1.55;;;8.50;1.00;;;;;;4997190;28;20213;-72
2020/12/24 10:08:58;;;;;;;5.05;1.67;;;8.50;1.00;;;;;;4969896;28;20228;-73
2020/12/24 10:11:24;;;;;;;7.25;2.38;;;8.70;1.00;;;;;;4978246;28;20252;-72
2020/12/24 10:13:50;;;;;;;3.75;1.70;;;8.80;1.00;;;;;;4962885;28;20691;-72
2020/12/24 10:16:16;;;;;;;4.75;1.70;;;8.90;1.00;;;;;;4982406;28;20285;-72
2020/12/24 10:18:43;;;;;;;5.22;2.08;;;8.90;1.00;;;;;;4967881;28;20977;-73
2020/12/24 10:21:10;;;;;;;4.25;1.58;;;9.00;1.00;;;;;;4980394;28;20228;-73
2020/12/24 10:23:36;;;;;;;5.97;1.90;;;8.90;1.00;;;;;;4972598;28;20227;-71
2020/12/24 10:26:03;;;;;;;2.75;1.60;;;8.90;1.00;;;;;;4983095;28;20705;-70
2020/12/24 10:28:30;;;;;;;5.90;2.10;;;8.90;1.00;;;;;;4985853;28;20337;-71
2020/12/24 10:30:56;;;;;;;4.45;2.40;;;8.90;1.00;;;;;;4964681;28;20687;-72
2020/12/24 10:33:22;;;;;;;5.75;1.90;;;8.90;1.00;;;;;;4982684;28;20319;-72
2020/12/24 10:35:49;;;;;;;6.05;2.22;;;8.80;1.00;;;;;;4972422;28;20682;-73
2020/12/24 10:38:15;;;;;;;2.55;1.10;;;8.90;1.00;;;;;;4984029;28;20216;-73
2020/12/24 10:40:42;;;;;;;2.40;1.20;;;8.90;1.00;;;;;;4939768;28;20228;-73
2020/12/24 10:43:09;;;;;;;4.80;1.70;;;8.90;1.00;;;;;;4973328;28;20318;-72
2020/12/24 10:45:35;;;;;;;3.65;2.20;;;9.00;1.00;;;;;;4957893;28;20732;-73
2020/12/24 10:48:01;;;;;;;6.55;1.92;;;9.00;1.00;;;;;;4979580;28;20735;-74
2020/12/24 10:50:28;;;;;;;4.03;2.00;;;9.00;1.00;;;;;;4975703;28;20240;-73
2020/12/24 10:52:54;;;;;;;4.50;1.60;;;8.90;1.00;;;;;;4973772;28;20276;-72
2020/12/24 10:55:20;;;;;;;5.82;1.83;;;8.80;1.00;;;;;;5000021;28;20230;-74
2020/12/24 10:57:47;;;;;;;2.22;1.40;;;8.70;1.00;;;;;;4988331;28;20229;-74
2020/12/24 11:00:14;;;;;;;2.97;1.45;;;8.60;1.00;;;;;;4994892;28;20235;-73
2020/12/24 11:02:41;;;;;;;5.82;2.05;;;8.60;1.00;;;;;;4981808;28;20216;-73
2020/12/24 11:05:08;;;;;;;4.88;1.85;;;8.50;1.00;;;;;;4987398;28;20231;-74
2020/12/24 11:07:34;;;;;;;6.57;1.70;;;8.50;1.00;;;;;;4968767;28;20232;-73
2020/12/24 11:10:00;;;;;;;4.10;1.70;;;8.50;1.00;;;;;;4982563;28;20317;-73
2020/12/24 11:12:27;;;;;;;4.18;1.50;;;8.60;1.00;;;;;;4969319;28;20298;-72
2020/12/24 11:14:53;;;;;;;4.43;1.50;;;8.50;1.00;;;;;;4977317;28;20229;-72
2020/12/24 11:17:20;;;;;;;3.47;1.65;;;8.40;1.00;;;;;;4964492;28;20220;-74
2020/12/24 11:19:46;;;;;;;5.07;1.80;;;8.30;1.00;;;;;;4976284;28;20749;-72
2020/12/24 11:22:13;;;;;;;4.00;1.45;;;8.30;1.00;;;;;;4967400;28;20344;-72
2020/12/24 11:24:39;;;;;;;2.58;1.30;;;8.20;1.00;;;;;;4975880;28;20308;-71
2020/12/24 11:29:46;;;;;;;2.25;1.70;;;8.20;1.00;;;;;;4981603;28;20347;-71
2020/12/24 11:32:12;;;;;;;3.40;1.45;;;8.10;1.00;;;;;;4987920;28;20223;-72
2020/12/24 11:34:39;;;;;;;3.03;1.20;;;8.00;1.00;;;;;;4978745;28;20224;-73
2020/12/24 11:37:06;;;;;;;2.50;1.55;;;7.90;1.00;;;;;;4991912;28;20247;-73
2020/12/24 11:39:32;;;;;;;4.70;1.67;;;7.80;1.00;;;;;;4975219;28;20280;-71
2020/12/24 11:41:58;;;;;;;1.92;1.42;;;7.80;1.00;;;;;;4982645;28;20327;-72
2020/12/24 11:44:25;;;;;;;2.97;2.10;;;7.80;1.00;;;;;;4964233;28;20220;-71
2020/12/24 11:46:51;;;;;;;2.20;1.38;;;7.70;1.00;;;;;;4977740;28;20220;-72
2020/12/24 11:49:17;;;;;;;3.92;1.45;;;7.80;1.00;;;;;;4956601;28;20392;-72
2020/12/24 11:51:44;;;;;;;1.85;0.98;;;7.70;1.00;;;;;;4979783;28;20243;-73
2020/12/24 11:54:10;;;;;;;2.35;1.58;;;7.60;1.00;;;;;;4967214;28;20212;-72
2020/12/24 11:56:37;;;;;;;1.10;1.00;;;7.60;1.00;;;;;;4979088;28;20251;-74
2020/12/24 11:59:03;;;;;;;1.75;1.20;;;7.60;1.00;;;;;;4960270;28;20308;-71
2020/12/24 12:01:29;;;;;;;2.63;0.85;;;7.50;1.00;;;;;;4980491;28;20234;-72
2020/12/24 12:03:56;;;;;;;1.52;1.40;;;7.60;1.00;;;;;;4960421;28;20224;-72
2020/12/24 12:06:22;;;;;;;2.90;1.45;;;7.70;1.00;;;;;;4975167;28;21085;-73
2020/12/24 12:08:49;;;;;;;1.48;1.00;;;7.70;1.00;;;;;;4969502;28;20231;-73
2020/12/24 12:11:16;;;;;;;1.35;1.25;;;7.70;1.00;;;;;;4967239;28;20239;-71
2020/12/24 12:13:42;;;;;;;1.55;1.10;;;7.70;1.00;;;;;;4981930;28;20305;-73
2020/12/24 12:16:10;;;;;;;1.17;0.88;;;7.60;1.00;;;;;;4962353;28;20309;-72
2020/12/24 12:18:36;;;;;;;1.88;1.20;;;7.60;1.00;;;;;;4981207;28;20227;-72
2020/12/24 12:21:03;;;;;;;1.27;1.17;;;7.60;1.00;;;;;;4963194;28;20242;-71
2020/12/24 12:23:29;;;;;;;1.35;1.23;;;7.50;1.00;;;;;;4977806;28;20318;-73
2020/12/24 12:25:57;;;;;;;2.15;1.42;;;7.40;1.00;;;;;;4964219;28;20232;-71
2020/12/24 12:28:23;;;;;;;1.42;0.80;;;7.30;1.00;;;;;;4978131;28;20227;-73
2020/12/24 12:30:49;;;;;;;1.27;1.00;;;7.30;1.00;;;;;;4958422;28;21061;-71
2020/12/24 12:33:15;;;;;;;1.60;1.30;;;7.20;1.00;;;;;;4979161;28;20716;-73
2020/12/24 12:35:42;;;;;;;1.70;1.40;;;7.20;1.00;;;;;;4955457;28;20842;-72
2020/12/24 12:38:08;;;;;;;1.38;0.80;;;7.20;1.00;;;;;;4982060;28;20231;-72
2020/12/24 12:40:34;;;;;;;1.63;1.05;;;7.20;1.00;;;;;;4961435;28;20334;-74
2020/12/24 12:43:02;;;;;;;1.38;1.10;;;7.20;1.00;;;;;;4973253;28;20224;-73
2020/12/24 12:45:28;;;;;;;2.17;1.50;;;7.30;1.00;;;;;;4981951;28;20256;-73
2020/12/24 12:47:54;;;;;;;0.90;0.65;;;7.20;1.00;;;;;;4968565;28;20319;-73
2020/12/24 12:50:21;;;;;;;1.00;0.80;;;7.20;1.00;;;;;;4977174;28;20237;-72
2020/12/24 12:52:47;;;;;;;1.95;1.00;;;7.00;1.00;;;;;;4963334;28;20223;-73
2020/12/24 12:55:13;;;;;;;1.15;0.93;;;6.90;1.00;;;;;;4973818;28;20215;-73
2020/12/24 12:57:40;;;;;;;1.67;1.15;;;6.70;1.00;;;;;;4961154;28;20286;-74
2020/12/24 13:00:09;;;;;;;3.53;3.20;;;6.60;1.00;;;;;;4977600;28;20223;-73
2020/12/24 13:02:35;;;;;;;1.10;0.90;;;6.40;1.00;;;;;;4961654;28;20264;-73
2020/12/24 13:05:02;;;;;;;2.97;1.52;;;6.30;1.00;;;;;;4974501;28;20215;-74
2020/12/24 13:07:28;;;;;;;2.13;1.65;;;6.10;1.00;;;;;;4959298;28;20227;-73
2020/12/24 13:09:54;;;;;;;1.92;1.40;;;6.00;1.00;;;;;;4980576;28;20255;-74
2020/12/24 13:12:21;;;;;;;1.55;1.10;;;5.90;1.00;;;;;;4961772;28;20235;-73